createdAt,value
2023-03-29T00:00:49.550Z,5.96
2023-03-29T00:07:05.084Z,5.92
2023-03-29T00:09:33.025Z,5.90
2023-03-29T00:12:01.487Z,5.86
2023-03-29T00:14:30.358Z,5.79
2023-03-29T00:16:57.558Z,5.77
2023-03-29T00:19:23.939Z,5.75
2023-03-29T00:21:50.322Z,5.77
2023-03-29T00:24:16.654Z,5.76
2023-03-29T00:26:43.024Z,5.78
2023-03-29T00:29:09.393Z,5.76
2023-03-29T00:31:35.891Z,5.76
2023-03-29T00:34:02.316Z,5.77
2023-03-29T00:36:28.744Z,5.76
2023-03-29T00:38:56.536Z,5.76
2023-03-29T00:41:22.861Z,5.75
2023-03-29T00:44:00.613Z,5.73
2023-03-29T00:46:29.702Z,5.72
2023-03-29T00:49:06.992Z,5.70
2023-03-29T00:51:37.253Z,5.68
2023-03-29T00:54:06.829Z,5.66
2023-03-29T00:56:38.465Z,5.64
2023-03-29T00:59:18.604Z,5.63
2023-03-29T01:01:56.840Z,5.60
2023-03-29T01:04:32.835Z,5.53
2023-03-29T01:07:05.038Z,5.59
2023-03-29T01:09:35.391Z,5.52
2023-03-29T01:12:08.863Z,5.54
2023-03-29T01:14:47.968Z,5.49
2023-03-29T01:17:15.904Z,5.52
2023-03-29T01:19:50.023Z,5.53
2023-03-29T01:22:26.035Z,5.53
2023-03-29T01:25:05.165Z,5.49
2023-03-29T01:27:43.634Z,5.43
2023-03-29T01:30:15.989Z,5.42
2023-03-29T01:32:50.389Z,5.40
2023-03-29T01:35:24.836Z,5.45
2023-03-29T01:38:09.733Z,5.44
2023-03-29T01:40:36.249Z,5.46
2023-03-29T01:43:11.450Z,5.44
2023-03-29T01:45:49.677Z,5.45
2023-03-29T01:48:18.759Z,5.40
2023-03-29T01:50:55.434Z,5.42
2023-03-29T01:53:30.945Z,5.43
2023-03-29T01:56:02.299Z,5.43
2023-03-29T01:58:33.927Z,5.35
2023-03-29T02:01:05.598Z,5.43
2023-03-29T02:03:34.141Z,5.41
2023-03-29T02:06:03.032Z,5.46
2023-03-29T02:08:29.629Z,5.41
2023-03-29T02:10:56.079Z,5.47
2023-03-29T02:13:22.471Z,5.47
2023-03-29T02:15:49.107Z,5.46
2023-03-29T02:18:17.620Z,5.43
2023-03-29T02:20:49.689Z,5.40
2023-03-29T02:23:34.001Z,5.38
2023-03-29T02:26:02.001Z,5.36
2023-03-29T02:28:30.076Z,5.36
2023-03-29T02:31:09.307Z,5.40
2023-03-29T02:33:52.988Z,5.43
2023-03-29T02:36:28.095Z,5.43
2023-03-29T02:38:55.890Z,5.45
2023-03-29T02:41:23.700Z,5.42
2023-03-29T02:43:51.071Z,5.42
2023-03-29T02:46:18.613Z,5.43
2023-03-29T02:48:46.810Z,5.43
2023-03-29T02:51:20.275Z,5.40
2023-03-29T02:53:56.262Z,5.39
2023-03-29T02:56:23.195Z,5.42
2023-03-29T02:58:49.749Z,5.26
2023-03-29T03:01:18.330Z,5.33
2023-03-29T03:03:45.129Z,5.29
2023-03-29T03:06:13.427Z,5.26
2023-03-29T03:08:40.015Z,5.29
2023-03-29T03:11:07.045Z,5.26
2023-03-29T03:13:33.407Z,5.23
2023-03-29T03:16:01.135Z,5.25
2023-03-29T03:18:27.702Z,5.25
2023-03-29T03:20:55.365Z,5.23
2023-03-29T03:23:21.667Z,5.23
2023-03-29T03:25:49.091Z,5.10
2023-03-29T03:28:15.585Z,5.01
2023-03-29T03:30:42.070Z,5.00
2023-03-29T03:33:08.993Z,5.02
2023-03-29T03:35:35.621Z,5.02
2023-03-29T03:38:01.986Z,5.03
2023-03-29T03:40:28.514Z,5.03
2023-03-29T03:42:54.876Z,5.01
2023-03-29T03:45:21.565Z,4.96
2023-03-29T03:47:48.043Z,4.94
2023-03-29T03:50:14.517Z,4.89
2023-03-29T03:52:40.891Z,4.92
2023-03-29T03:55:08.186Z,4.89
2023-03-29T03:57:37.390Z,4.88
2023-03-29T04:00:19.164Z,4.85
2023-03-29T04:02:47.166Z,4.74
2023-03-29T04:05:14.240Z,4.87
2023-03-29T04:07:41.146Z,4.90
2023-03-29T04:10:09.143Z,4.86
2023-03-29T04:12:36.007Z,4.88
2023-03-29T04:15:03.761Z,4.85
2023-03-29T04:17:30.380Z,4.86
2023-03-29T04:19:57.520Z,4.92
2023-03-29T04:22:27.893Z,4.96
2023-03-29T04:24:54.217Z,4.99
2023-03-29T04:27:20.620Z,5.00
2023-03-29T04:29:47.586Z,5.00
2023-03-29T04:32:13.939Z,4.99
2023-03-29T04:34:40.432Z,4.93
2023-03-29T04:37:10.611Z,4.93
2023-03-29T04:39:37.814Z,4.96
2023-03-29T04:42:05.148Z,4.95
2023-03-29T04:44:34.850Z,4.97
2023-03-29T04:47:01.387Z,4.96
2023-03-29T04:49:27.810Z,5.00
2023-03-29T04:51:54.450Z,4.98
2023-03-29T04:54:21.254Z,4.92
2023-03-29T04:56:47.669Z,4.95
2023-03-29T04:59:14.046Z,4.92
2023-03-29T05:01:40.428Z,4.76
2023-03-29T05:04:06.833Z,4.89
2023-03-29T05:06:33.177Z,4.92
2023-03-29T05:09:01.104Z,4.96
2023-03-29T05:11:27.623Z,5.00
2023-03-29T05:13:57.046Z,5.03
2023-03-29T05:16:24.520Z,5.08
2023-03-29T05:18:51.616Z,5.03
2023-03-29T05:21:18.358Z,5.01
2023-03-29T05:23:44.848Z,5.06
2023-03-29T05:26:14.484Z,5.08
2023-03-29T05:28:41.758Z,5.05
2023-03-29T05:31:08.339Z,5.14
2023-03-29T05:33:35.392Z,5.16
2023-03-29T05:36:05.895Z,5.20
2023-03-29T05:38:34.947Z,5.21
2023-03-29T05:41:01.364Z,5.23
2023-03-29T05:43:27.870Z,5.24
2023-03-29T05:45:55.642Z,5.27
2023-03-29T05:48:23.670Z,5.32
2023-03-29T05:50:52.134Z,5.32
2023-03-29T05:53:21.160Z,5.35
2023-03-29T05:55:47.726Z,5.40
2023-03-29T05:58:15.567Z,5.41
2023-03-29T06:00:42.745Z,5.42
2023-03-29T06:05:48.348Z,5.42
2023-03-29T06:08:16.798Z,5.53
2023-03-29T06:10:43.603Z,5.51
2023-03-29T06:13:10.795Z,5.56
2023-03-29T06:15:37.479Z,5.61
2023-03-29T06:18:04.560Z,5.60
2023-03-29T06:20:31.673Z,5.60
2023-03-29T06:22:58.430Z,5.62
2023-03-29T06:25:24.917Z,5.62
2023-03-29T06:27:52.162Z,5.64
2023-03-29T06:30:19.232Z,5.67
2023-03-29T06:32:46.169Z,5.69
2023-03-29T06:35:12.541Z,5.64
2023-03-29T06:37:49.343Z,5.72
2023-03-29T06:40:21.185Z,5.79
2023-03-29T06:42:48.388Z,5.79
2023-03-29T06:45:14.962Z,5.83
2023-03-29T06:47:41.940Z,5.80
2023-03-29T06:50:09.186Z,5.89
2023-03-29T06:52:35.690Z,5.89
2023-03-29T06:55:02.902Z,5.89
2023-03-29T06:57:29.242Z,5.94
2023-03-29T06:59:55.683Z,5.92
2023-03-29T07:02:22.584Z,6.01
2023-03-29T07:08:02.131Z,6.15
2023-03-29T07:10:48.884Z,6.23
2023-03-29T07:13:15.546Z,6.30
2023-03-29T07:15:43.531Z,6.31
2023-03-29T07:18:10.484Z,6.39
2023-03-29T07:20:38.767Z,6.45
2023-03-29T07:23:06.363Z,6.50
2023-03-29T07:25:33.844Z,6.55
2023-03-29T07:28:00.253Z,6.62
2023-03-29T07:30:31.670Z,6.67
2023-03-29T07:32:59.384Z,6.80
2023-03-29T07:35:26.985Z,6.84
2023-03-29T07:37:55.473Z,6.89
2023-03-29T07:40:23.515Z,6.91
2023-03-29T07:42:54.898Z,6.90
2023-03-29T07:45:26.630Z,6.96
2023-03-29T07:47:56.222Z,7.10
2023-03-29T07:50:23.282Z,7.18
2023-03-29T07:52:50.039Z,7.24
2023-03-29T07:55:16.934Z,7.34
2023-03-29T07:57:44.173Z,7.32
2023-03-29T08:00:16.301Z,7.41
2023-03-29T08:02:44.658Z,7.54
2023-03-29T08:05:17.534Z,7.58
2023-03-29T08:07:47.640Z,7.54
2023-03-29T08:10:16.930Z,7.71
2023-03-29T08:12:45.273Z,7.73
2023-03-29T08:15:13.093Z,7.64
2023-03-29T08:17:41.204Z,7.72
2023-03-29T08:20:10.863Z,7.70
2023-03-29T08:22:37.845Z,7.76
2023-03-29T08:25:05.495Z,7.97
2023-03-29T08:27:32.167Z,8.00
2023-03-29T08:29:58.518Z,8.08
2023-03-29T08:32:25.077Z,8.18
2023-03-29T08:34:51.638Z,8.24
2023-03-29T08:37:19.031Z,8.35
2023-03-29T08:39:45.881Z,8.46
2023-03-29T08:42:29.634Z,8.55
2023-03-29T08:45:26.568Z,8.65
2023-03-29T08:48:15.875Z,8.55
2023-03-29T08:50:57.130Z,8.68
2023-03-29T08:53:29.094Z,8.75
2023-03-29T08:55:58.888Z,8.87
2023-03-29T08:58:29.003Z,8.94
2023-03-29T09:00:58.201Z,8.95
2023-03-29T09:03:45.785Z,9.10
2023-03-29T09:06:12.812Z,8.95
2023-03-29T09:08:47.458Z,8.95
2023-03-29T09:11:23.040Z,9.03
2023-03-29T09:13:58.442Z,9.04
2023-03-29T09:16:52.120Z,9.16
2023-03-29T09:19:37.104Z,9.18
2023-03-29T09:22:06.329Z,9.17
2023-03-29T09:24:44.918Z,9.07
2023-03-29T09:27:23.834Z,8.92
2023-03-29T09:30:01.947Z,9.06
2023-03-29T09:32:32.866Z,9.18
2023-03-29T09:35:22.582Z,9.31
2023-03-29T09:37:51.463Z,9.41
2023-03-29T09:40:24.562Z,9.60
2023-03-29T09:42:54.034Z,9.70
2023-03-29T09:45:20.445Z,9.63
2023-03-29T09:47:55.481Z,9.78
2023-03-29T09:50:34.223Z,9.96
2023-03-29T09:53:01.314Z,9.78
2023-03-29T09:55:33.668Z,9.88
2023-03-29T09:58:02.064Z,9.85
2023-03-29T10:00:28.457Z,9.98
2023-03-29T10:02:58.738Z,10.07
2023-03-29T10:05:29.388Z,10.13
2023-03-29T10:07:59.700Z,10.17
2023-03-29T10:10:35.250Z,10.16
2023-03-29T10:13:06.900Z,10.22
2023-03-29T10:15:33.432Z,10.22
2023-03-29T10:18:03.498Z,10.25
2023-03-29T10:20:30.066Z,10.41
2023-03-29T10:22:58.794Z,10.57
2023-03-29T10:25:33.845Z,10.76
2023-03-29T10:28:08.213Z,10.77
2023-03-29T10:30:37.151Z,11.03
2023-03-29T10:33:03.960Z,11.23
2023-03-29T10:35:37.994Z,11.54
2023-03-29T10:38:09.850Z,11.76
2023-03-29T10:40:47.018Z,11.75
2023-03-29T10:43:19.082Z,12.25
2023-03-29T10:45:49.987Z,12.32
2023-03-29T10:48:17.759Z,12.29
2023-03-29T10:50:52.826Z,12.47
2023-03-29T10:53:30.282Z,12.98
2023-03-29T10:56:16.069Z,12.95
2023-03-29T10:59:00.277Z,13.39
2023-03-29T11:01:42.637Z,12.89
2023-03-29T11:04:33.062Z,12.95
2023-03-29T11:07:30.466Z,13.32
2023-03-29T11:10:30.734Z,13.57
2023-03-29T11:13:15.148Z,13.79
2023-03-29T11:16:12.662Z,13.60
2023-03-29T11:19:03.375Z,13.62
2023-03-29T11:21:59.683Z,13.53
2023-03-29T11:24:45.437Z,13.70
2023-03-29T11:27:14.493Z,13.69
2023-03-29T11:29:52.727Z,13.80
2023-03-29T11:32:31.354Z,13.76
2023-03-29T11:35:01.511Z,14.15
2023-03-29T11:37:37.248Z,13.97
2023-03-29T11:40:51.354Z,14.22
2023-03-29T11:43:32.727Z,14.60
2023-03-29T11:46:03.976Z,14.71
2023-03-29T11:48:46.049Z,14.51
2023-03-29T11:51:25.759Z,14.45
2023-03-29T11:54:11.073Z,14.44
2023-03-29T11:56:47.631Z,14.47
2023-03-29T11:59:55.790Z,14.40
2023-03-29T12:02:32.464Z,14.26
2023-03-29T12:05:05.416Z,14.31
2023-03-29T12:07:37.114Z,14.45
2023-03-29T12:10:14.436Z,14.40
2023-03-29T12:12:46.448Z,14.48
2023-03-29T12:15:20.270Z,14.49
2023-03-29T12:18:02.442Z,14.31
2023-03-29T12:20:33.520Z,14.45
2023-03-29T12:23:00.644Z,14.48
2023-03-29T12:25:37.970Z,14.33
2023-03-29T12:28:18.066Z,14.37
2023-03-29T12:30:55.853Z,14.25
2023-03-29T12:33:50.483Z,14.05
2023-03-29T12:36:43.852Z,13.95
2023-03-29T12:39:19.097Z,14.06
2023-03-29T12:41:48.924Z,14.14
2023-03-29T12:44:17.458Z,14.24
2023-03-29T12:46:44.103Z,14.17
2023-03-29T12:49:21.226Z,14.32
2023-03-29T12:51:48.114Z,14.65
2023-03-29T12:54:19.679Z,14.99
2023-03-29T12:56:51.940Z,14.99
2023-03-29T12:59:27.417Z,15.06
2023-03-29T13:02:14.206Z,15.17
2023-03-29T13:04:46.935Z,14.99
2023-03-29T13:07:22.328Z,15.20
2023-03-29T13:09:52.101Z,15.33
2023-03-29T13:12:33.398Z,15.58
2023-03-29T13:15:02.464Z,15.20
2023-03-29T13:17:50.817Z,15.21
2023-03-29T13:20:29.392Z,15.30
2023-03-29T13:23:22.574Z,15.28
2023-03-29T13:26:00.752Z,15.39
2023-03-29T13:28:58.555Z,15.63
2023-03-29T13:31:56.079Z,15.78
2023-03-29T13:35:00.645Z,15.99
2023-03-29T13:37:53.972Z,16.10
2023-03-29T13:40:29.374Z,16.22
2023-03-29T13:43:08.606Z,16.17
2023-03-29T13:45:36.090Z,16.03
2023-03-29T13:48:24.787Z,15.88
2023-03-29T13:51:01.956Z,16.06
2023-03-29T13:53:33.691Z,16.15
2023-03-29T13:56:01.116Z,15.88
2023-03-29T13:58:37.919Z,16.27
2023-03-29T14:01:16.377Z,16.09
2023-03-29T14:03:46.182Z,16.19
2023-03-29T14:06:16.503Z,16.33
2023-03-29T14:08:44.392Z,16.44
2023-03-29T14:11:24.416Z,16.54
2023-03-29T14:14:06.756Z,16.48
2023-03-29T14:16:37.192Z,16.35
2023-03-29T14:19:07.525Z,16.26
2023-03-29T14:21:33.869Z,16.26
2023-03-29T14:24:01.897Z,16.17
2023-03-29T14:26:34.340Z,16.17
2023-03-29T14:29:02.339Z,16.19
2023-03-29T14:31:35.626Z,16.25
2023-03-29T14:34:11.214Z,16.23
2023-03-29T14:36:38.677Z,16.28
2023-03-29T14:39:12.871Z,16.40
2023-03-29T14:41:41.663Z,16.33
2023-03-29T14:44:08.276Z,16.46
2023-03-29T14:46:36.279Z,16.35
2023-03-29T14:49:03.731Z,16.42
2023-03-29T14:51:31.277Z,16.44
2023-03-29T14:54:00.209Z,16.49
2023-03-29T14:56:27.078Z,16.43
2023-03-29T14:58:56.903Z,16.50
2023-03-29T15:01:25.749Z,16.46
2023-03-29T15:04:11.372Z,16.44
2023-03-29T15:06:40.898Z,16.55
2023-03-29T15:09:15.808Z,16.51
2023-03-29T15:11:50.254Z,16.51
2023-03-29T15:14:19.092Z,16.57
2023-03-29T15:16:47.379Z,16.57
2023-03-29T15:19:19.644Z,16.68
2023-03-29T15:21:49.154Z,16.63
2023-03-29T15:24:31.858Z,16.64
2023-03-29T15:27:01.316Z,16.56
2023-03-29T15:29:46.175Z,16.65
2023-03-29T15:32:23.819Z,16.48
2023-03-29T15:35:09.208Z,16.40
2023-03-29T15:37:35.960Z,16.24
2023-03-29T15:40:09.601Z,16.13
2023-03-29T15:42:36.543Z,16.12
2023-03-29T15:45:06.136Z,16.01
2023-03-29T15:47:32.476Z,15.96
2023-03-29T15:49:58.852Z,15.90
2023-03-29T15:52:25.262Z,15.92
2023-03-29T15:54:51.867Z,15.80
2023-03-29T15:57:18.719Z,15.83
2023-03-29T15:59:45.341Z,15.80
2023-03-29T16:02:16.380Z,15.80
2023-03-29T16:04:43.459Z,15.75
2023-03-29T16:07:14.872Z,15.74
2023-03-29T16:09:42.027Z,15.75
2023-03-29T16:12:10.143Z,15.76
2023-03-29T16:14:36.745Z,15.76
2023-03-29T16:17:03.873Z,15.78
2023-03-29T16:19:31.200Z,15.77
2023-03-29T16:21:59.342Z,15.76
2023-03-29T16:24:28.384Z,15.73
2023-03-29T16:26:56.450Z,15.73
2023-03-29T16:29:24.581Z,15.68
2023-03-29T16:31:52.482Z,15.68
2023-03-29T16:34:19.971Z,15.56
2023-03-29T16:36:47.769Z,15.49
2023-03-29T16:39:14.736Z,15.43
2023-03-29T16:41:42.182Z,15.38
2023-03-29T16:44:13.855Z,15.31
2023-03-29T16:46:40.356Z,15.27
2023-03-29T16:49:07.870Z,15.19
2023-03-29T16:51:34.216Z,15.14
2023-03-29T16:54:00.659Z,15.11
2023-03-29T16:56:28.323Z,15.14
2023-03-29T16:58:54.744Z,15.10
2023-03-29T17:01:22.536Z,15.08
2023-03-29T17:03:48.922Z,15.07
2023-03-29T17:06:15.563Z,15.01
2023-03-29T17:08:42.370Z,15.01
2023-03-29T17:11:09.331Z,14.98
2023-03-29T17:13:37.231Z,14.92
2023-03-29T17:16:04.516Z,14.86
2023-03-29T17:18:31.237Z,14.86
2023-03-29T17:20:58.686Z,14.80
2023-03-29T17:23:25.851Z,14.78
2023-03-29T17:25:54.491Z,14.77
2023-03-29T17:28:20.934Z,14.78
2023-03-29T17:30:47.765Z,14.74
2023-03-29T17:33:14.324Z,14.66
2023-03-29T17:35:42.898Z,14.62
2023-03-29T17:38:09.234Z,14.62
2023-03-29T17:40:35.789Z,14.58
2023-03-29T17:43:02.196Z,14.54
2023-03-29T17:45:28.579Z,14.49
2023-03-29T17:47:55.022Z,14.47
2023-03-29T17:50:21.575Z,14.39
2023-03-29T17:52:47.969Z,14.39
2023-03-29T17:55:14.379Z,14.30
2023-03-29T17:57:41.735Z,14.27
2023-03-29T18:00:12.236Z,14.26
2023-03-29T18:02:39.928Z,14.25
2023-03-29T18:05:09.255Z,14.27
2023-03-29T18:07:36.570Z,14.16
2023-03-29T18:10:03.574Z,13.96
2023-03-29T18:12:30.324Z,14.07
2023-03-29T18:14:56.888Z,14.04
2023-03-29T18:17:24.477Z,14.01
2023-03-29T18:19:51.364Z,13.99
2023-03-29T18:22:18.511Z,13.98
2023-03-29T18:24:46.403Z,13.93
2023-03-29T18:27:13.038Z,13.95
2023-03-29T18:29:39.395Z,13.95
2023-03-29T18:32:06.014Z,13.92
2023-03-29T18:34:33.304Z,13.92
2023-03-29T18:36:59.838Z,13.85
2023-03-29T18:39:27.228Z,13.86
2023-03-29T18:41:53.625Z,13.80
2023-03-29T18:44:21.741Z,13.80
2023-03-29T18:46:48.321Z,13.76
2023-03-29T18:49:14.761Z,13.75
2023-03-29T18:51:42.106Z,13.79
2023-03-29T18:54:08.951Z,13.76
2023-03-29T18:56:36.000Z,13.78
2023-03-29T18:59:06.012Z,13.74
2023-03-29T19:01:33.080Z,13.67
2023-03-29T19:03:59.462Z,13.72
2023-03-29T19:06:26.048Z,13.74
2023-03-29T19:08:53.888Z,13.63
2023-03-29T19:11:20.322Z,13.57
2023-03-29T19:13:50.031Z,13.57
2023-03-29T19:16:17.297Z,13.45
2023-03-29T19:18:43.844Z,13.45
2023-03-29T19:21:10.546Z,13.39
2023-03-29T19:23:37.259Z,13.35
2023-03-29T19:26:05.866Z,13.27
2023-03-29T19:28:33.743Z,13.22
2023-03-29T19:31:01.993Z,13.18
2023-03-29T19:33:29.244Z,13.11
2023-03-29T19:35:56.198Z,13.12
2023-03-29T19:38:22.650Z,12.94
2023-03-29T19:40:50.812Z,12.96
2023-03-29T19:43:17.951Z,12.94
2023-03-29T19:45:48.397Z,12.88
2023-03-29T19:48:21.934Z,12.82
2023-03-29T19:50:49.238Z,12.82
2023-03-29T19:53:15.614Z,12.66
2023-03-29T19:55:42.647Z,12.77
2023-03-29T19:58:09.270Z,12.78
2023-03-29T20:00:38.586Z,12.70
2023-03-29T20:03:05.285Z,12.68
2023-03-29T20:05:31.904Z,12.65
2023-03-29T20:07:58.284Z,12.61
2023-03-29T20:10:24.605Z,12.52
2023-03-29T20:12:51.124Z,12.59
2023-03-29T20:15:17.852Z,12.54
2023-03-29T20:17:44.862Z,12.57
2023-03-29T20:20:13.594Z,12.57
2023-03-29T20:22:42.060Z,12.61
2023-03-29T20:25:09.377Z,12.57
2023-03-29T20:27:35.906Z,12.55
2023-03-29T20:30:03.604Z,12.54
2023-03-29T20:32:30.074Z,12.54
2023-03-29T20:34:56.489Z,12.47
2023-03-29T20:37:22.992Z,12.49
2023-03-29T20:39:49.684Z,12.40
2023-03-29T20:42:16.197Z,12.37
2023-03-29T20:44:50.246Z,12.40
2023-03-29T20:47:19.950Z,12.35
2023-03-29T20:49:46.337Z,12.39
2023-03-29T20:52:17.198Z,12.32
2023-03-29T20:54:45.044Z,12.28
2023-03-29T20:57:16.985Z,12.30
2023-03-29T20:59:44.269Z,12.23
2023-03-29T21:02:14.614Z,12.27
2023-03-29T21:04:41.926Z,12.38
2023-03-29T21:07:08.274Z,12.39
2023-03-29T21:09:35.992Z,12.45
2023-03-29T21:12:02.873Z,12.41
2023-03-29T21:14:30.260Z,12.38
2023-03-29T21:16:56.634Z,12.27
2023-03-29T21:19:24.169Z,12.34
2023-03-29T21:21:52.095Z,12.29
2023-03-29T21:24:19.006Z,12.23
2023-03-29T21:26:46.290Z,12.14
2023-03-29T21:29:13.085Z,12.08
2023-03-29T21:31:39.621Z,12.07
2023-03-29T21:34:05.992Z,12.02
2023-03-29T21:36:32.362Z,11.98
2023-03-29T21:38:58.649Z,11.98
2023-03-29T21:41:25.077Z,11.97
2023-03-29T21:43:51.429Z,11.92
2023-03-29T21:46:17.811Z,11.90
2023-03-29T21:48:44.164Z,11.92
2023-03-29T21:51:10.552Z,11.95
2023-03-29T21:53:36.974Z,12.02
2023-03-29T21:56:03.749Z,12.08
2023-03-29T21:58:30.250Z,12.04
2023-03-29T22:00:57.139Z,12.05
2023-03-29T22:03:23.721Z,12.01
2023-03-29T22:06:02.343Z,12.09
2023-03-29T22:08:29.503Z,12.04
2023-03-29T22:10:57.092Z,12.02
2023-03-29T22:13:28.450Z,11.98
2023-03-29T22:15:59.348Z,11.93
2023-03-29T22:18:28.055Z,11.85
2023-03-29T22:20:54.550Z,11.95
2023-03-29T22:23:20.911Z,11.94
2023-03-29T22:25:47.366Z,11.97
2023-03-29T22:28:14.288Z,11.92
2023-03-29T22:30:40.957Z,11.92
2023-03-29T22:33:07.413Z,11.89
2023-03-29T22:35:35.137Z,11.78
2023-03-29T22:38:01.618Z,11.77
2023-03-29T22:40:28.206Z,11.72
2023-03-29T22:42:54.491Z,11.68
2023-03-29T22:45:20.830Z,11.64
2023-03-29T22:47:47.214Z,11.62
2023-03-29T22:50:13.729Z,11.56
2023-03-29T22:52:40.293Z,11.53
2023-03-29T22:55:07.022Z,11.54
2023-03-29T22:57:33.365Z,11.59
2023-03-29T23:00:00.599Z,11.68
2023-03-29T23:02:26.946Z,11.66
2023-03-29T23:04:53.289Z,11.73
2023-03-29T23:07:19.621Z,11.68
2023-03-29T23:09:46.039Z,11.77
2023-03-29T23:12:12.368Z,11.78
2023-03-29T23:14:42.427Z,11.74
2023-03-29T23:17:10.141Z,11.69
2023-03-29T23:19:37.796Z,11.65
2023-03-29T23:22:04.134Z,11.68
2023-03-29T23:24:30.500Z,11.62
2023-03-29T23:26:57.466Z,11.55
2023-03-29T23:29:26.127Z,11.52
2023-03-29T23:31:53.684Z,11.54
2023-03-29T23:34:20.180Z,11.57
2023-03-29T23:36:46.540Z,11.60
2023-03-29T23:39:12.930Z,11.63
2023-03-29T23:41:40.037Z,11.82
2023-03-29T23:44:06.383Z,11.97
2023-03-29T23:46:32.764Z,11.98
2023-03-29T23:48:59.088Z,12.05
2023-03-29T23:51:28.133Z,12.20
2023-03-29T23:53:55.775Z,12.24
2023-03-29T23:56:22.819Z,12.24
2023-03-29T23:58:49.640Z,12.25
